sensor_id;sensor_type;location;lat;lon;timestamp;P1;durP1;ratioP1;P2;durP2;ratioP2
58512;SDS011;44302;47.914;10.642;2023-05-07T05:13:12;9.37;;;8.40;;
58512;SDS011;44302;47.914;10.642;2023-05-07T05:21:57;10.50;;;8.47;;
58512;SDS011;44302;47.914;10.642;2023-05-07T05:28:37;10.27;;;7.97;;
58512;SDS011;44302;47.914;10.642;2023-05-07T05:35:16;8.03;;;6.17;;
58512;SDS011;44302;47.914;10.642;2023-05-07T05:42:02;7.50;;;6.27;;
58512;SDS011;44302;47.914;10.642;2023-05-07T05:47:13;8.53;;;6.07;;
58512;SDS011;44302;47.914;10.642;2023-05-07T05:52:58;8.07;;;5.30;;
58512;SDS011;44302;47.914;10.642;2023-05-07T05:57:21;8.30;;;5.80;;
58512;SDS011;44302;47.914;10.642;2023-05-07T06:02:10;9.13;;;4.80;;
58512;SDS011;44302;47.914;10.642;2023-05-07T06:06:59;4.87;;;4.47;;
58512;SDS011;44302;47.914;10.642;2023-05-07T06:10:48;5.17;;;4.40;;
58512;SDS011;44302;47.914;10.642;2023-05-07T06:14:55;7.57;;;4.10;;
58512;SDS011;44302;47.914;10.642;2023-05-07T06:18:40;3.23;;;2.93;;
58512;SDS011;44302;47.914;10.642;2023-05-07T06:22:42;3.20;;;2.80;;
58512;SDS011;44302;47.914;10.642;2023-05-07T06:26:43;6.17;;;2.80;;
58512;SDS011;44302;47.914;10.642;2023-05-07T06:30:38;7.07;;;3.10;;
58512;SDS011;44302;47.914;10.642;2023-05-07T06:34:39;3.17;;;2.87;;
58512;SDS011;44302;47.914;10.642;2023-05-07T06:38:36;4.47;;;3.07;;
58512;SDS011;44302;47.914;10.642;2023-05-07T06:42:32;3.30;;;3.00;;
58512;SDS011;44302;47.914;10.642;2023-05-07T06:46:32;4.57;;;3.03;;
58512;SDS011;44302;47.914;10.642;2023-05-07T06:50:31;3.38;;;3.08;;
58512;SDS011;44302;47.914;10.642;2023-05-07T06:54:33;3.67;;;2.57;;
58512;SDS011;44302;47.914;10.642;2023-05-07T06:58:28;3.57;;;2.57;;
58512;SDS011;44302;47.914;10.642;2023-05-07T07:02:27;2.90;;;2.30;;
58512;SDS011;44302;47.914;10.642;2023-05-07T07:07:29;2.80;;;2.60;;
58512;SDS011;44302;47.914;10.642;2023-05-07T07:09:55;4.00;;;2.40;;
58512;SDS011;44302;47.914;10.642;2023-05-07T07:12:21;3.67;;;2.30;;
58512;SDS011;44302;47.914;10.642;2023-05-07T07:14:47;6.90;;;2.53;;
58512;SDS011;44302;47.914;10.642;2023-05-07T07:17:13;2.80;;;2.27;;
58512;SDS011;44302;47.914;10.642;2023-05-07T07:19:39;2.40;;;2.20;;
58512;SDS011;44302;47.914;10.642;2023-05-07T07:22:04;2.90;;;2.30;;
58512;SDS011;44302;47.914;10.642;2023-05-07T07:24:30;2.50;;;2.30;;
58512;SDS011;44302;47.914;10.642;2023-05-07T07:26:58;2.87;;;2.40;;
58512;SDS011;44302;47.914;10.642;2023-05-07T07:29:24;3.47;;;2.30;;
58512;SDS011;44302;47.914;10.642;2023-05-07T07:31:51;2.30;;;2.07;;
58512;SDS011;44302;47.914;10.642;2023-05-07T07:34:17;2.10;;;1.90;;
58512;SDS011;44302;47.914;10.642;2023-05-07T07:36:42;3.87;;;2.27;;
58512;SDS011;44302;47.914;10.642;2023-05-07T07:39:08;2.70;;;2.00;;
58512;SDS011;44302;47.914;10.642;2023-05-07T07:41:34;3.93;;;2.27;;
58512;SDS011;44302;47.914;10.642;2023-05-07T07:44:00;1.87;;;1.77;;
58512;SDS011;44302;47.914;10.642;2023-05-07T07:46:26;2.03;;;1.83;;
58512;SDS011;44302;47.914;10.642;2023-05-07T07:48:51;4.53;;;2.17;;
58512;SDS011;44302;47.914;10.642;2023-05-07T07:51:17;2.30;;;2.00;;
58512;SDS011;44302;47.914;10.642;2023-05-07T07:53:43;3.90;;;2.17;;
58512;SDS011;44302;47.914;10.642;2023-05-07T07:56:10;3.23;;;2.10;;
58512;SDS011;44302;47.914;10.642;2023-05-07T07:58:37;2.27;;;1.83;;
58512;SDS011;44302;47.914;10.642;2023-05-07T08:01:03;2.77;;;2.00;;
58512;SDS011;44302;47.914;10.642;2023-05-07T08:03:28;3.10;;;2.17;;
58512;SDS011;44302;47.914;10.642;2023-05-07T08:05:57;2.80;;;1.90;;
58512;SDS011;44302;47.914;10.642;2023-05-07T08:08:22;2.17;;;1.60;;
58512;SDS011;44302;47.914;10.642;2023-05-07T08:10:48;4.07;;;1.80;;
58512;SDS011;44302;47.914;10.642;2023-05-07T08:13:15;1.77;;;1.67;;
58512;SDS011;44302;47.914;10.642;2023-05-07T08:15:41;1.70;;;1.50;;
58512;SDS011;44302;47.914;10.642;2023-05-07T08:18:07;2.73;;;1.73;;
58512;SDS011;44302;47.914;10.642;2023-05-07T08:20:32;3.60;;;1.80;;
58512;SDS011;44302;47.914;10.642;2023-05-07T08:23:00;1.80;;;1.50;;
58512;SDS011;44302;47.914;10.642;2023-05-07T08:25:26;1.60;;;1.50;;
58512;SDS011;44302;47.914;10.642;2023-05-07T08:27:52;2.23;;;1.50;;
58512;SDS011;44302;47.914;10.642;2023-05-07T08:30:17;2.07;;;1.87;;
58512;SDS011;44302;47.914;10.642;2023-05-07T08:32:43;1.97;;;1.70;;
58512;SDS011;44302;47.914;10.642;2023-05-07T08:35:09;3.30;;;1.90;;
58512;SDS011;44302;47.914;10.642;2023-05-07T08:37:34;1.90;;;1.57;;
58512;SDS011;44302;47.914;10.642;2023-05-07T08:40:00;3.27;;;1.90;;
58512;SDS011;44302;47.914;10.642;2023-05-07T08:42:26;2.43;;;1.80;;
58512;SDS011;44302;47.914;10.642;2023-05-07T08:44:53;3.43;;;1.60;;
58512;SDS011;44302;47.914;10.642;2023-05-07T08:47:24;3.03;;;1.90;;
58512;SDS011;44302;47.914;10.642;2023-05-07T08:49:58;3.33;;;1.57;;
58512;SDS011;44302;47.914;10.642;2023-05-07T08:52:24;1.60;;;1.50;;
58512;SDS011;44302;47.914;10.642;2023-05-07T08:54:51;4.00;;;1.60;;
58512;SDS011;44302;47.914;10.642;2023-05-07T08:57:17;2.13;;;1.70;;
58512;SDS011;44302;47.914;10.642;2023-05-07T08:59:44;1.90;;;1.80;;
58512;SDS011;44302;47.914;10.642;2023-05-07T09:02:10;2.20;;;1.80;;
58512;SDS011;44302;47.914;10.642;2023-05-07T09:04:36;2.00;;;1.90;;
58512;SDS011;44302;47.914;10.642;2023-05-07T09:07:02;2.23;;;1.80;;
58512;SDS011;44302;47.914;10.642;2023-05-07T09:09:31;1.57;;;1.40;;
58512;SDS011;44302;47.914;10.642;2023-05-07T09:11:57;2.03;;;1.50;;
58512;SDS011;44302;47.914;10.642;2023-05-07T09:14:27;4.93;;;1.73;;
58512;SDS011;44302;47.914;10.642;2023-05-07T09:16:53;2.97;;;1.90;;
58512;SDS011;44302;47.914;10.642;2023-05-07T09:19:22;2.73;;;1.40;;
58512;SDS011;44302;47.914;10.642;2023-05-07T09:21:49;1.80;;;1.60;;
58512;SDS011;44302;47.914;10.642;2023-05-07T09:24:15;2.37;;;1.70;;
58512;SDS011;44302;47.914;10.642;2023-05-07T09:26:41;2.07;;;1.70;;
58512;SDS011;44302;47.914;10.642;2023-05-07T09:29:07;2.83;;;1.33;;
58512;SDS011;44302;47.914;10.642;2023-05-07T09:31:38;3.67;;;1.77;;
58512;SDS011;44302;47.914;10.642;2023-05-07T09:34:06;2.53;;;1.60;;
58512;SDS011;44302;47.914;10.642;2023-05-07T09:36:33;4.40;;;1.50;;
58512;SDS011;44302;47.914;10.642;2023-05-07T09:39:02;9.43;;;1.90;;
58512;SDS011;44302;47.914;10.642;2023-05-07T09:41:27;2.90;;;1.60;;
58512;SDS011;44302;47.914;10.642;2023-05-07T09:43:57;3.20;;;1.60;;
58512;SDS011;44302;47.914;10.642;2023-05-07T09:46:25;3.27;;;1.50;;
58512;SDS011;44302;47.914;10.642;2023-05-07T09:48:56;4.50;;;1.60;;
58512;SDS011;44302;47.914;10.642;2023-05-07T09:51:29;3.23;;;1.57;;
58512;SDS011;44302;47.914;10.642;2023-05-07T09:53:59;4.00;;;1.57;;
58512;SDS011;44302;47.914;10.642;2023-05-07T09:56:27;2.53;;;1.40;;
58512;SDS011;44302;47.914;10.642;2023-05-07T09:58:56;2.93;;;1.50;;
58512;SDS011;44302;47.914;10.642;2023-05-07T10:01:25;2.27;;;1.30;;
58512;SDS011;44302;47.914;10.642;2023-05-07T10:03:52;1.97;;;1.40;;
58512;SDS011;44302;47.914;10.642;2023-05-07T10:06:18;1.70;;;1.33;;
58512;SDS011;44302;47.914;10.642;2023-05-07T10:08:45;4.37;;;1.60;;
58512;SDS011;44302;47.914;10.642;2023-05-07T10:11:11;2.80;;;1.33;;
58512;SDS011;44302;47.914;10.642;2023-05-07T10:13:37;1.73;;;1.63;;
58512;SDS011;44302;47.914;10.642;2023-05-07T10:16:03;4.07;;;2.80;;
58512;SDS011;44302;47.914;10.642;2023-05-07T10:18:30;2.37;;;1.50;;
58512;SDS011;44302;47.914;10.642;2023-05-07T10:21:07;1.50;;;1.30;;
58512;SDS011;44302;47.914;10.642;2023-05-07T10:23:40;2.60;;;1.20;;
58512;SDS011;44302;47.914;10.642;2023-05-07T10:26:10;3.67;;;1.87;;
58512;SDS011;44302;47.914;10.642;2023-05-07T10:28:38;2.57;;;1.67;;
58512;SDS011;44302;47.914;10.642;2023-05-07T10:33:51;1.80;;;1.60;;
58512;SDS011;44302;47.914;10.642;2023-05-07T10:36:20;3.77;;;1.83;;
58512;SDS011;44302;47.914;10.642;2023-05-07T10:38:47;1.73;;;1.10;;
58512;SDS011;44302;47.914;10.642;2023-05-07T10:41:12;3.57;;;1.60;;
58512;SDS011;44302;47.914;10.642;2023-05-07T10:43:43;4.57;;;1.73;;
58512;SDS011;44302;47.914;10.642;2023-05-07T10:46:10;2.80;;;1.77;;
58512;SDS011;44302;47.914;10.642;2023-05-07T10:51:25;2.10;;;1.40;;
58512;SDS011;44302;47.914;10.642;2023-05-07T10:56:39;5.00;;;1.33;;
58512;SDS011;44302;47.914;10.642;2023-05-07T11:02:06;1.60;;;1.40;;
58512;SDS011;44302;47.914;10.642;2023-05-07T11:04:34;1.93;;;1.53;;
58512;SDS011;44302;47.914;10.642;2023-05-07T11:15:04;2.60;;;1.30;;
58512;SDS011;44302;47.914;10.642;2023-05-07T11:17:31;1.70;;;1.40;;
58512;SDS011;44302;47.914;10.642;2023-05-07T11:19:59;2.10;;;1.23;;
58512;SDS011;44302;47.914;10.642;2023-05-07T11:25:01;2.53;;;1.50;;
58512;SDS011;44302;47.914;10.642;2023-05-07T11:27:28;1.87;;;1.53;;
58512;SDS011;44302;47.914;10.642;2023-05-07T11:29:55;4.17;;;2.90;;
58512;SDS011;44302;47.914;10.642;2023-05-07T11:32:24;3.10;;;2.03;;
58512;SDS011;44302;47.914;10.642;2023-05-07T11:34:52;2.87;;;1.40;;
58512;SDS011;44302;47.914;10.642;2023-05-07T11:37:22;2.37;;;1.67;;
58512;SDS011;44302;47.914;10.642;2023-05-07T11:39:48;1.80;;;1.40;;
58512;SDS011;44302;47.914;10.642;2023-05-07T11:42:32;3.77;;;2.23;;
58512;SDS011;44302;47.914;10.642;2023-05-07T11:44:59;1.30;;;1.20;;
58512;SDS011;44302;47.914;10.642;2023-05-07T11:47:25;1.70;;;1.50;;
58512;SDS011;44302;47.914;10.642;2023-05-07T11:49:52;2.17;;;1.50;;
58512;SDS011;44302;47.914;10.642;2023-05-07T11:52:19;2.20;;;1.60;;
58512;SDS011;44302;47.914;10.642;2023-05-07T11:54:55;3.07;;;1.37;;
58512;SDS011;44302;47.914;10.642;2023-05-07T11:57:23;2.10;;;1.43;;
58512;SDS011;44302;47.914;10.642;2023-05-07T11:59:53;4.00;;;1.77;;
58512;SDS011;44302;47.914;10.642;2023-05-07T12:02:22;4.00;;;1.63;;
58512;SDS011;44302;47.914;10.642;2023-05-07T12:04:49;2.73;;;1.67;;
58512;SDS011;44302;47.914;10.642;2023-05-07T12:07:16;2.10;;;1.90;;
58512;SDS011;44302;47.914;10.642;2023-05-07T12:09:43;3.53;;;2.13;;
58512;SDS011;44302;47.914;10.642;2023-05-07T12:12:09;1.83;;;1.63;;
58512;SDS011;44302;47.914;10.642;2023-05-07T12:14:42;2.80;;;1.70;;
58512;SDS011;44302;47.914;10.642;2023-05-07T12:17:09;2.17;;;1.97;;
58512;SDS011;44302;47.914;10.642;2023-05-07T12:19:36;3.50;;;2.37;;
58512;SDS011;44302;47.914;10.642;2023-05-07T12:22:03;4.30;;;2.30;;
58512;SDS011;44302;47.914;10.642;2023-05-07T12:24:46;3.60;;;2.00;;
58512;SDS011;44302;47.914;10.642;2023-05-07T12:27:13;3.43;;;2.20;;
58512;SDS011;44302;47.914;10.642;2023-05-07T12:29:39;2.67;;;1.90;;
58512;SDS011;44302;47.914;10.642;2023-05-07T12:32:12;2.10;;;1.90;;
58512;SDS011;44302;47.914;10.642;2023-05-07T12:34:40;3.10;;;1.70;;
58512;SDS011;44302;47.914;10.642;2023-05-07T12:37:05;3.67;;;2.43;;
58512;SDS011;44302;47.914;10.642;2023-05-07T12:39:31;2.43;;;1.90;;
58512;SDS011;44302;47.914;10.642;2023-05-07T12:41:58;1.97;;;1.77;;
58512;SDS011;44302;47.914;10.642;2023-05-07T12:44:31;4.63;;;2.17;;
58512;SDS011;44302;47.914;10.642;2023-05-07T12:46:57;2.40;;;1.73;;
58512;SDS011;44302;47.914;10.642;2023-05-07T12:49:26;2.23;;;1.53;;
58512;SDS011;44302;47.914;10.642;2023-05-07T12:51:52;2.47;;;1.60;;
58512;SDS011;44302;47.914;10.642;2023-05-07T12:54:29;3.07;;;1.60;;
58512;SDS011;44302;47.914;10.642;2023-05-07T12:57:05;2.20;;;1.40;;
58512;SDS011;44302;47.914;10.642;2023-05-07T12:59:38;4.30;;;2.00;;
58512;SDS011;44302;47.914;10.642;2023-05-07T13:02:06;4.30;;;2.17;;
58512;SDS011;44302;47.914;10.642;2023-05-07T13:04:33;4.03;;;1.60;;
58512;SDS011;44302;47.914;10.642;2023-05-07T13:06:59;2.20;;;1.67;;
58512;SDS011;44302;47.914;10.642;2023-05-07T13:09:25;3.13;;;1.97;;
58512;SDS011;44302;47.914;10.642;2023-05-07T13:11:51;7.53;;;1.90;;
58512;SDS011;44302;47.914;10.642;2023-05-07T13:14:17;2.13;;;1.70;;
58512;SDS011;44302;47.914;10.642;2023-05-07T13:16:45;5.47;;;1.93;;
58512;SDS011;44302;47.914;10.642;2023-05-07T13:19:10;5.43;;;2.23;;
58512;SDS011;44302;47.914;10.642;2023-05-07T13:21:36;2.13;;;1.63;;
58512;SDS011;44302;47.914;10.642;2023-05-07T13:24:02;3.67;;;2.13;;
58512;SDS011;44302;47.914;10.642;2023-05-07T13:26:29;3.23;;;1.80;;
58512;SDS011;44302;47.914;10.642;2023-05-07T13:28:56;4.10;;;1.70;;
58512;SDS011;44302;47.914;10.642;2023-05-07T13:31:22;2.47;;;1.70;;
58512;SDS011;44302;47.914;10.642;2023-05-07T13:33:48;2.43;;;1.67;;
58512;SDS011;44302;47.914;10.642;2023-05-07T13:36:14;2.27;;;2.07;;
58512;SDS011;44302;47.914;10.642;2023-05-07T13:38:40;5.33;;;2.20;;
58512;SDS011;44302;47.914;10.642;2023-05-07T13:41:05;2.77;;;2.50;;
58512;SDS011;44302;47.914;10.642;2023-05-07T13:43:31;6.03;;;3.87;;
58512;SDS011;44302;47.914;10.642;2023-05-07T13:45:58;4.20;;;2.10;;
58512;SDS011;44302;47.914;10.642;2023-05-07T13:48:24;6.30;;;2.00;;
58512;SDS011;44302;47.914;10.642;2023-05-07T13:50:50;3.10;;;1.70;;
58512;SDS011;44302;47.914;10.642;2023-05-07T13:53:16;2.10;;;1.60;;
58512;SDS011;44302;47.914;10.642;2023-05-07T13:55:43;2.77;;;1.63;;
58512;SDS011;44302;47.914;10.642;2023-05-07T13:58:09;2.40;;;1.80;;
58512;SDS011;44302;47.914;10.642;2023-05-07T14:00:36;2.40;;;2.03;;
58512;SDS011;44302;47.914;10.642;2023-05-07T14:03:02;3.77;;;2.03;;
58512;SDS011;44302;47.914;10.642;2023-05-07T14:05:29;3.03;;;2.10;;
58512;SDS011;44302;47.914;10.642;2023-05-07T14:11:04;2.10;;;1.90;;
58512;SDS011;44302;47.914;10.642;2023-05-07T14:13:30;3.03;;;2.10;;
58512;SDS011;44302;47.914;10.642;2023-05-07T14:15:56;3.43;;;2.27;;
58512;SDS011;44302;47.914;10.642;2023-05-07T14:18:23;3.63;;;2.20;;
58512;SDS011;44302;47.914;10.642;2023-05-07T14:20:48;3.03;;;2.13;;
58512;SDS011;44302;47.914;10.642;2023-05-07T14:23:16;3.40;;;2.40;;
58512;SDS011;44302;47.914;10.642;2023-05-07T14:25:42;3.73;;;2.40;;
58512;SDS011;44302;47.914;10.642;2023-05-07T14:28:08;3.00;;;2.20;;
58512;SDS011;44302;47.914;10.642;2023-05-07T14:30:34;3.20;;;2.00;;
58512;SDS011;44302;47.914;10.642;2023-05-07T14:33:00;2.33;;;2.13;;
58512;SDS011;44302;47.914;10.642;2023-05-07T14:35:25;3.20;;;2.20;;
58512;SDS011;44302;47.914;10.642;2023-05-07T14:37:51;2.27;;;1.80;;
58512;SDS011;44302;47.914;10.642;2023-05-07T14:40:17;4.40;;;1.80;;
58512;SDS011;44302;47.914;10.642;2023-05-07T14:42:42;3.23;;;1.70;;
58512;SDS011;44302;47.914;10.642;2023-05-07T14:45:08;3.50;;;1.90;;
58512;SDS011;44302;47.914;10.642;2023-05-07T14:47:34;1.93;;;1.67;;
58512;SDS011;44302;47.914;10.642;2023-05-07T14:50:00;4.77;;;1.80;;
58512;SDS011;44302;47.914;10.642;2023-05-07T14:52:26;3.60;;;1.90;;
58512;SDS011;44302;47.914;10.642;2023-05-07T14:54:52;2.03;;;1.80;;
58512;SDS011;44302;47.914;10.642;2023-05-07T14:57:18;3.63;;;1.80;;
58512;SDS011;44302;47.914;10.642;2023-05-07T14:59:44;4.63;;;1.70;;
58512;SDS011;44302;47.914;10.642;2023-05-07T15:02:11;2.30;;;1.60;;
58512;SDS011;44302;47.914;10.642;2023-05-07T15:04:37;2.23;;;1.70;;
58512;SDS011;44302;47.914;10.642;2023-05-07T15:07:11;2.43;;;1.63;;
58512;SDS011;44302;47.914;10.642;2023-05-07T15:09:42;2.10;;;1.47;;
58512;SDS011;44302;47.914;10.642;2023-05-07T15:12:08;3.57;;;1.80;;
58512;SDS011;44302;47.914;10.642;2023-05-07T15:14:34;3.93;;;1.60;;
58512;SDS011;44302;47.914;10.642;2023-05-07T15:16:59;3.93;;;1.53;;
58512;SDS011;44302;47.914;10.642;2023-05-07T15:19:25;3.43;;;1.50;;
58512;SDS011;44302;47.914;10.642;2023-05-07T15:21:56;3.63;;;1.47;;
58512;SDS011;44302;47.914;10.642;2023-05-07T15:24:23;4.73;;;1.70;;
58512;SDS011;44302;47.914;10.642;2023-05-07T15:26:49;2.63;;;1.53;;
58512;SDS011;44302;47.914;10.642;2023-05-07T15:29:17;3.80;;;1.80;;
58512;SDS011;44302;47.914;10.642;2023-05-07T15:31:43;2.00;;;1.30;;
58512;SDS011;44302;47.914;10.642;2023-05-07T15:34:09;2.40;;;1.60;;
58512;SDS011;44302;47.914;10.642;2023-05-07T15:36:35;3.07;;;1.70;;
58512;SDS011;44302;47.914;10.642;2023-05-07T15:39:01;1.80;;;1.70;;
58512;SDS011;44302;47.914;10.642;2023-05-07T15:41:27;5.87;;;1.83;;
58512;SDS011;44302;47.914;10.642;2023-05-07T15:43:53;3.77;;;1.73;;
58512;SDS011;44302;47.914;10.642;2023-05-07T15:46:19;4.23;;;1.87;;
58512;SDS011;44302;47.914;10.642;2023-05-07T15:48:46;2.70;;;1.50;;
58512;SDS011;44302;47.914;10.642;2023-05-07T15:51:12;3.87;;;1.77;;
58512;SDS011;44302;47.914;10.642;2023-05-07T15:53:38;2.23;;;1.70;;
58512;SDS011;44302;47.914;10.642;2023-05-07T15:56:05;1.97;;;1.43;;
58512;SDS011;44302;47.914;10.642;2023-05-07T15:58:31;1.80;;;1.57;;
58512;SDS011;44302;47.914;10.642;2023-05-07T16:00:57;1.80;;;1.50;;
58512;SDS011;44302;47.914;10.642;2023-05-07T16:03:25;1.77;;;1.40;;
58512;SDS011;44302;47.914;10.642;2023-05-07T16:05:54;1.50;;;1.40;;
58512;SDS011;44302;47.914;10.642;2023-05-07T16:08:24;2.97;;;1.30;;
58512;SDS011;44302;47.914;10.642;2023-05-07T16:10:50;1.90;;;1.70;;
58512;SDS011;44302;47.914;10.642;2023-05-07T16:13:18;4.20;;;1.87;;
58512;SDS011;44302;47.914;10.642;2023-05-07T16:15:47;3.60;;;1.50;;
58512;SDS011;44302;47.914;10.642;2023-05-07T16:18:13;3.77;;;1.70;;
58512;SDS011;44302;47.914;10.642;2023-05-07T16:20:41;1.60;;;1.50;;
58512;SDS011;44302;47.914;10.642;2023-05-07T16:33:13;3.70;;;2.17;;
